createdAt,value
2023-01-27T00:00:15.260Z,100.00
2023-01-27T00:03:00.805Z,100.00
2023-01-27T00:05:46.813Z,100.00
2023-01-27T00:08:32.132Z,100.00
2023-01-27T00:11:17.165Z,100.00
2023-01-27T00:14:02.432Z,100.00
2023-01-27T00:16:47.781Z,100.00
2023-01-27T00:19:33.188Z,100.00
2023-01-27T00:22:18.033Z,100.00
2023-01-27T00:25:03.143Z,100.00
2023-01-27T00:27:48.353Z,100.00
2023-01-27T00:30:33.154Z,100.00
2023-01-27T00:33:18.166Z,100.00
2023-01-27T00:36:07.577Z,100.00
2023-01-27T00:38:53.174Z,100.00
2023-01-27T00:41:40.192Z,100.00
2023-01-27T00:44:25.294Z,100.00
2023-01-27T00:47:10.678Z,100.00
2023-01-27T00:49:55.618Z,100.00
2023-01-27T00:52:41.212Z,100.00
2023-01-27T00:55:26.543Z,100.00
2023-01-27T00:58:11.831Z,100.00
2023-01-27T01:00:58.172Z,100.00
2023-01-27T01:03:44.511Z,100.00
2023-01-27T01:06:29.683Z,100.00
2023-01-27T01:09:15.936Z,100.00
2023-01-27T01:12:01.419Z,100.00
2023-01-27T01:14:46.712Z,100.00
2023-01-27T01:17:31.734Z,100.00
2023-01-27T01:20:16.716Z,100.00
2023-01-27T01:23:02.042Z,100.00
2023-01-27T01:25:54.920Z,100.00
2023-01-27T01:28:40.069Z,100.00
2023-01-27T01:31:25.500Z,100.00
2023-01-27T01:34:10.682Z,100.00
2023-01-27T01:36:55.552Z,100.00
2023-01-27T01:39:40.483Z,100.00
2023-01-27T01:42:25.963Z,100.00
2023-01-27T01:45:32.830Z,100.00
2023-01-27T01:48:26.527Z,100.00
2023-01-27T01:51:34.805Z,100.00
2023-01-27T01:54:28.355Z,100.00
2023-01-27T01:57:29.725Z,100.00
2023-01-27T02:00:16.752Z,100.00
2023-01-27T02:03:03.551Z,100.00
2023-01-27T02:05:48.997Z,100.00
2023-01-27T02:08:38.452Z,100.00
2023-01-27T02:11:23.898Z,100.00
2023-01-27T02:14:11.441Z,100.00
2023-01-27T02:16:57.835Z,100.00
2023-01-27T02:19:58.314Z,100.00
2023-01-27T02:23:09.559Z,100.00
2023-01-27T02:25:54.604Z,100.00
2023-01-27T02:28:39.539Z,100.00
2023-01-27T02:31:25.331Z,100.00
2023-01-27T02:34:14.827Z,100.00
2023-01-27T02:37:06.883Z,100.00
2023-01-27T02:39:55.013Z,100.00
2023-01-27T02:42:39.794Z,100.00
2023-01-27T02:45:24.822Z,100.00
2023-01-27T02:48:10.058Z,100.00
2023-01-27T02:50:54.826Z,100.00
2023-01-27T02:53:39.642Z,100.00
2023-01-27T02:56:24.645Z,100.00
2023-01-27T02:59:10.098Z,100.00
2023-01-27T03:01:55.428Z,100.00
2023-01-27T03:04:40.733Z,100.00
2023-01-27T03:07:26.833Z,100.00
2023-01-27T03:10:11.673Z,100.00
2023-01-27T03:12:56.989Z,100.00
2023-01-27T03:15:42.371Z,100.00
2023-01-27T03:18:27.852Z,100.00
2023-01-27T03:21:14.147Z,100.00
2023-01-27T03:24:00.779Z,100.00
2023-01-27T03:26:46.463Z,100.00
2023-01-27T03:29:31.600Z,100.00
2023-01-27T03:32:17.046Z,100.00
2023-01-27T03:35:02.792Z,100.00
2023-01-27T03:37:47.818Z,100.00
2023-01-27T03:40:32.984Z,100.00
2023-01-27T03:43:18.528Z,100.00
2023-01-27T03:46:03.701Z,100.00
2023-01-27T03:48:55.243Z,100.00
2023-01-27T03:51:40.219Z,100.00
2023-01-27T03:54:25.561Z,100.00
2023-01-27T03:57:10.396Z,100.00
2023-01-27T03:59:55.345Z,100.00
2023-01-27T04:02:40.202Z,100.00
2023-01-27T04:05:25.504Z,100.00
2023-01-27T04:08:10.861Z,100.00
2023-01-27T04:11:02.293Z,100.00
2023-01-27T04:13:47.182Z,100.00
2023-01-27T04:16:33.168Z,100.00
2023-01-27T04:19:18.360Z,100.00
2023-01-27T04:22:04.745Z,100.00
2023-01-27T04:24:49.782Z,100.00
2023-01-27T04:27:34.620Z,100.00
2023-01-27T04:30:19.510Z,100.00
2023-01-27T04:33:04.952Z,100.00
2023-01-27T04:35:50.191Z,100.00
2023-01-27T04:38:35.105Z,100.00
2023-01-27T04:41:19.889Z,100.00
2023-01-27T04:44:06.239Z,100.00
2023-01-27T04:46:57.620Z,100.00
2023-01-27T04:49:42.391Z,100.00
2023-01-27T04:52:27.358Z,100.00
2023-01-27T04:55:12.604Z,100.00
2023-01-27T04:58:01.204Z,100.00
2023-01-27T05:00:46.245Z,100.00
2023-01-27T05:03:31.542Z,100.00
2023-01-27T05:06:16.984Z,100.00
2023-01-27T05:09:02.737Z,100.00
2023-01-27T05:11:48.227Z,100.00
2023-01-27T05:14:48.004Z,100.00
2023-01-27T05:17:34.122Z,100.00
2023-01-27T05:20:19.364Z,100.00
2023-01-27T05:23:04.401Z,100.00
2023-01-27T05:25:52.719Z,100.00
2023-01-27T05:28:39.295Z,100.00
2023-01-27T05:31:32.124Z,100.00
2023-01-27T05:34:17.293Z,100.00
2023-01-27T05:37:02.303Z,100.00
2023-01-27T05:39:47.686Z,100.00
2023-01-27T05:42:35.301Z,100.00
2023-01-27T05:45:22.166Z,100.00
2023-01-27T05:48:07.977Z,100.00
2023-01-27T05:50:58.697Z,100.00
2023-01-27T05:53:44.445Z,100.00
2023-01-27T05:56:29.822Z,100.00
2023-01-27T05:59:15.319Z,100.00
2023-01-27T06:02:22.697Z,100.00
2023-01-27T06:05:08.830Z,100.00
2023-01-27T06:07:54.845Z,100.00
2023-01-27T06:10:40.804Z,100.00
2023-01-27T06:16:36.589Z,100.00
2023-01-27T06:19:22.061Z,100.00
2023-01-27T06:22:06.982Z,100.00
2023-01-27T06:24:52.629Z,100.00
2023-01-27T06:27:37.829Z,100.00
2023-01-27T06:30:24.100Z,100.00
2023-01-27T06:33:12.207Z,100.00
2023-01-27T06:36:05.582Z,100.00
2023-01-27T06:38:53.965Z,100.00
2023-01-27T06:41:39.152Z,100.00
2023-01-27T06:44:24.057Z,100.00
2023-01-27T06:47:09.722Z,100.00
2023-01-27T06:49:55.080Z,100.00
2023-01-27T06:52:40.221Z,100.00
2023-01-27T06:55:25.574Z,100.00
2023-01-27T06:58:12.632Z,100.00
2023-01-27T07:00:57.968Z,100.00
2023-01-27T07:03:44.782Z,100.00
2023-01-27T07:06:30.044Z,100.00
2023-01-27T07:09:15.417Z,100.00
2023-01-27T07:12:00.245Z,100.00
2023-01-27T07:14:45.779Z,100.00
2023-01-27T07:17:31.131Z,100.00
2023-01-27T07:20:16.392Z,100.00
2023-01-27T07:23:03.768Z,100.00
2023-01-27T07:25:48.953Z,100.00
2023-01-27T07:28:34.311Z,100.00
2023-01-27T07:31:19.774Z,100.00
2023-01-27T07:34:05.273Z,100.00
2023-01-27T07:36:51.559Z,100.00
2023-01-27T07:39:37.146Z,100.00
2023-01-27T07:42:22.198Z,100.00
2023-01-27T07:45:08.002Z,100.00
2023-01-27T07:47:53.306Z,100.00
2023-01-27T07:50:40.442Z,100.00
2023-01-27T07:53:25.712Z,100.00
2023-01-27T07:56:10.658Z,100.00
2023-01-27T07:58:55.746Z,100.00
2023-01-27T08:01:41.143Z,100.00
2023-01-27T08:04:26.055Z,100.00
2023-01-27T08:07:10.815Z,100.00
2023-01-27T08:09:55.599Z,100.00
2023-01-27T08:12:40.357Z,100.00
2023-01-27T08:15:25.527Z,100.00
2023-01-27T08:18:10.574Z,100.00
2023-01-27T08:20:59.691Z,100.00
2023-01-27T08:23:45.600Z,100.00
2023-01-27T08:26:30.706Z,100.00
2023-01-27T08:29:15.782Z,100.00
2023-01-27T08:32:00.727Z,100.00
2023-01-27T08:34:45.712Z,100.00
2023-01-27T08:37:30.524Z,100.00
2023-01-27T08:40:16.629Z,100.00
2023-01-27T08:43:04.648Z,100.00
2023-01-27T08:45:52.306Z,100.00
2023-01-27T08:48:37.932Z,100.00
2023-01-27T08:51:23.304Z,100.00
2023-01-27T08:54:09.145Z,100.00
2023-01-27T08:56:54.382Z,100.00
2023-01-27T08:59:39.290Z,100.00
2023-01-27T09:02:25.004Z,100.00
2023-01-27T09:05:10.370Z,100.00
2023-01-27T09:07:55.619Z,100.00
2023-01-27T09:10:41.439Z,100.00
2023-01-27T09:13:26.813Z,100.00
2023-01-27T09:16:11.982Z,100.00
2023-01-27T09:18:57.332Z,100.00
2023-01-27T09:21:42.685Z,100.00
2023-01-27T09:24:28.657Z,100.00
2023-01-27T09:27:13.917Z,100.00
2023-01-27T09:29:59.466Z,100.00
2023-01-27T09:32:44.740Z,100.00
2023-01-27T09:35:36.413Z,100.00
2023-01-27T09:38:23.288Z,100.00
2023-01-27T09:41:31.829Z,100.00
2023-01-27T09:44:44.787Z,100.00
2023-01-27T09:47:56.830Z,100.00
2023-01-27T09:50:52.440Z,100.00
2023-01-27T09:53:57.218Z,100.00
2023-01-27T09:57:04.592Z,100.00
2023-01-27T09:59:55.574Z,100.00
2023-01-27T10:02:50.812Z,100.00
2023-01-27T10:06:17.537Z,100.00
2023-01-27T10:09:10.853Z,100.00
2023-01-27T10:12:17.947Z,100.00
2023-01-27T10:15:10.204Z,100.00
2023-01-27T10:18:14.113Z,100.00
2023-01-27T10:21:17.329Z,100.00
2023-01-27T10:24:02.389Z,100.00
2023-01-27T10:26:56.055Z,100.00
2023-01-27T10:30:15.802Z,100.00
2023-01-27T10:33:15.677Z,100.00
2023-01-27T10:36:19.510Z,100.00
2023-01-27T10:39:33.961Z,100.00
2023-01-27T10:43:00.077Z,100.00
2023-01-27T10:46:15.010Z,100.00
2023-01-27T10:49:04.148Z,100.00
2023-01-27T10:52:06.786Z,100.00
2023-01-27T10:55:03.772Z,100.00
2023-01-27T10:57:59.060Z,100.00
2023-01-27T11:04:03.887Z,100.00
2023-01-27T11:06:50.654Z,100.00
2023-01-27T11:09:47.155Z,100.00
2023-01-27T11:12:36.428Z,100.00
2023-01-27T11:15:34.273Z,100.00
2023-01-27T11:18:25.965Z,100.00
2023-01-27T11:21:17.761Z,100.00
2023-01-27T11:24:21.115Z,100.00
2023-01-27T11:27:22.119Z,100.00
2023-01-27T11:30:21.651Z,100.00
2023-01-27T11:33:18.922Z,100.00
2023-01-27T11:36:04.359Z,100.00
2023-01-27T11:38:49.482Z,100.00
2023-01-27T11:41:38.231Z,100.00
2023-01-27T11:44:29.541Z,100.00
2023-01-27T11:47:24.535Z,100.00
2023-01-27T11:50:18.803Z,100.00
2023-01-27T11:53:29.676Z,100.00
2023-01-27T11:56:23.206Z,100.00
2023-01-27T11:59:15.193Z,100.00
2023-01-27T12:02:14.999Z,100.00
2023-01-27T12:05:07.631Z,100.00
2023-01-27T12:07:59.930Z,100.00
2023-01-27T12:10:45.197Z,100.00
2023-01-27T12:13:30.213Z,100.00
2023-01-27T12:16:16.162Z,100.00
2023-01-27T12:19:15.016Z,100.00
2023-01-27T12:22:11.693Z,100.00
2023-01-27T12:25:01.638Z,100.00
2023-01-27T12:27:53.442Z,100.00
2023-01-27T12:30:38.525Z,100.00
2023-01-27T12:33:29.331Z,100.00
2023-01-27T12:36:16.801Z,100.00
2023-01-27T12:39:02.229Z,100.00
2023-01-27T12:41:47.451Z,100.00
2023-01-27T12:44:45.863Z,100.00
2023-01-27T12:47:30.768Z,100.00
2023-01-27T12:50:24.642Z,100.00
2023-01-27T12:53:15.861Z,100.00
2023-01-27T12:56:07.662Z,100.00
2023-01-27T12:58:53.792Z,100.00
2023-01-27T13:01:39.521Z,100.00
2023-01-27T13:04:25.755Z,100.00
2023-01-27T13:07:17.736Z,100.00
2023-01-27T13:10:07.044Z,100.00
2023-01-27T13:12:58.275Z,100.00
2023-01-27T13:15:52.724Z,100.00
2023-01-27T13:18:38.035Z,100.00
2023-01-27T13:21:29.662Z,100.00
2023-01-27T13:24:33.096Z,100.00
2023-01-27T13:27:21.946Z,100.00
2023-01-27T13:30:19.286Z,100.00
2023-01-27T13:33:42.562Z,100.00
2023-01-27T13:36:40.646Z,100.00
2023-01-27T13:39:47.606Z,100.00
2023-01-27T13:42:51.419Z,100.00
2023-01-27T13:45:47.876Z,100.00
2023-01-27T13:48:38.758Z,100.00
2023-01-27T13:51:28.952Z,100.00
2023-01-27T13:54:15.430Z,100.00
2023-01-27T13:57:19.516Z,100.00
2023-01-27T14:00:14.737Z,100.00
2023-01-27T14:03:06.325Z,100.00
2023-01-27T14:05:57.296Z,100.00
2023-01-27T14:08:48.509Z,100.00
2023-01-27T14:11:47.127Z,100.00
2023-01-27T14:14:57.674Z,100.00
2023-01-27T14:17:53.134Z,100.00
2023-01-27T14:20:49.365Z,100.00
2023-01-27T14:23:54.469Z,100.00
2023-01-27T14:26:50.411Z,100.00
2023-01-27T14:30:00.729Z,100.00
2023-01-27T14:32:58.353Z,100.00
2023-01-27T14:35:59.113Z,100.00
2023-01-27T14:39:01.763Z,100.00
2023-01-27T14:42:06.287Z,100.00
2023-01-27T14:45:03.954Z,100.00
2023-01-27T14:47:55.117Z,100.00
2023-01-27T14:50:49.396Z,100.00
2023-01-27T14:54:31.026Z,100.00
2023-01-27T14:57:27.830Z,100.00
2023-01-27T15:00:50.565Z,100.00
2023-01-27T15:03:56.197Z,100.00
2023-01-27T15:06:50.230Z,100.00
2023-01-27T15:09:53.998Z,100.00
2023-01-27T15:12:57.707Z,100.00
2023-01-27T15:16:14.868Z,100.00
2023-01-27T15:19:09.438Z,100.00
2023-01-27T15:22:12.421Z,100.00
2023-01-27T15:25:20.691Z,100.00
2023-01-27T15:28:13.285Z,100.00
2023-01-27T15:31:07.940Z,100.00
2023-01-27T15:34:20.132Z,100.00
2023-01-27T15:37:25.423Z,100.00
2023-01-27T15:40:16.134Z,100.00
2023-01-27T15:43:04.732Z,100.00
2023-01-27T15:45:56.078Z,100.00
2023-01-27T15:48:44.131Z,100.00
2023-01-27T15:51:34.201Z,100.00
2023-01-27T15:54:26.001Z,100.00
2023-01-27T15:57:37.617Z,100.00
2023-01-27T16:00:34.610Z,100.00
2023-01-27T16:03:31.243Z,100.00
2023-01-27T16:06:25.921Z,100.00
2023-01-27T16:09:31.147Z,100.00
2023-01-27T16:12:20.138Z,100.00
2023-01-27T16:15:15.104Z,100.00
2023-01-27T16:18:06.718Z,100.00
2023-01-27T16:20:54.966Z,100.00
2023-01-27T16:23:53.428Z,100.00
2023-01-27T16:26:44.381Z,100.00
2023-01-27T16:29:41.390Z,100.00
2023-01-27T16:32:36.890Z,100.00
2023-01-27T16:35:22.015Z,100.00
2023-01-27T16:38:23.979Z,100.00
2023-01-27T16:41:21.362Z,100.00
2023-01-27T16:44:13.980Z,100.00
2023-01-27T16:47:15.975Z,100.00
2023-01-27T16:50:01.942Z,100.00
2023-01-27T16:52:47.389Z,100.00
2023-01-27T16:56:03.506Z,100.00
2023-01-27T16:58:51.019Z,100.00
2023-01-27T17:01:46.958Z,100.00
2023-01-27T17:04:32.560Z,100.00
2023-01-27T17:07:18.021Z,100.00
2023-01-27T17:10:18.944Z,100.00
2023-01-27T17:13:29.377Z,100.00
2023-01-27T17:16:24.652Z,100.00
2023-01-27T17:19:16.059Z,100.00
2023-01-27T17:22:07.213Z,100.00
2023-01-27T17:24:55.052Z,100.00
2023-01-27T17:27:43.628Z,100.00
2023-01-27T17:30:37.792Z,100.00
2023-01-27T17:33:22.875Z,100.00
2023-01-27T17:36:12.862Z,100.00
2023-01-27T17:38:58.565Z,100.00
2023-01-27T17:41:45.328Z,100.00
2023-01-27T17:44:30.613Z,100.00
2023-01-27T17:47:17.868Z,100.00
2023-01-27T17:50:06.024Z,100.00
2023-01-27T17:52:55.135Z,100.00
2023-01-27T17:55:40.516Z,100.00
2023-01-27T17:58:27.598Z,100.00
2023-01-27T18:01:15.376Z,100.00
2023-01-27T18:04:01.859Z,100.00
2023-01-27T18:06:49.870Z,100.00
2023-01-27T18:09:35.166Z,100.00
2023-01-27T18:12:35.583Z,100.00
2023-01-27T18:15:41.140Z,100.00
2023-01-27T18:18:36.332Z,100.00
2023-01-27T18:21:26.796Z,100.00
2023-01-27T18:24:23.399Z,100.00
2023-01-27T18:27:39.456Z,99.56
2023-01-27T18:30:24.690Z,98.71
2023-01-27T18:33:11.063Z,98.24
2023-01-27T18:36:00.765Z,97.93
2023-01-27T18:38:49.761Z,97.65
2023-01-27T18:41:35.630Z,97.89
2023-01-27T18:44:21.035Z,97.02
2023-01-27T18:47:18.513Z,96.78
2023-01-27T18:50:15.751Z,96.88
2023-01-27T18:53:00.610Z,97.00
2023-01-27T18:55:46.579Z,97.19
2023-01-27T18:58:31.818Z,97.49
2023-01-27T19:01:21.463Z,98.34
2023-01-27T19:04:10.997Z,99.30
2023-01-27T19:06:56.254Z,99.41
2023-01-27T19:09:42.754Z,99.61
2023-01-27T19:12:29.029Z,99.68
2023-01-27T19:15:15.821Z,99.90
2023-01-27T19:18:05.709Z,99.58
2023-01-27T19:20:50.669Z,99.18
2023-01-27T19:23:35.454Z,98.64
2023-01-27T19:26:24.076Z,97.66
2023-01-27T19:29:10.733Z,97.02
2023-01-27T19:31:55.595Z,96.41
2023-01-27T19:34:41.698Z,95.81
2023-01-27T19:37:26.925Z,95.64
2023-01-27T19:40:25.784Z,94.71
2023-01-27T19:43:14.956Z,94.65
2023-01-27T19:46:00.055Z,94.28
2023-01-27T19:48:45.367Z,93.72
2023-01-27T19:51:32.139Z,93.67
2023-01-27T19:54:17.357Z,93.44
2023-01-27T19:57:02.599Z,93.33
2023-01-27T19:59:47.432Z,93.18
2023-01-27T20:02:32.533Z,93.15
2023-01-27T20:05:18.559Z,93.15
2023-01-27T20:08:03.729Z,93.03
2023-01-27T20:10:48.878Z,93.27
2023-01-27T20:13:34.231Z,93.44
2023-01-27T20:16:19.922Z,93.55
2023-01-27T20:19:05.309Z,93.30
2023-01-27T20:21:50.665Z,93.19
2023-01-27T20:24:35.573Z,93.00
2023-01-27T20:27:20.367Z,92.91
2023-01-27T20:30:05.989Z,92.88
2023-01-27T20:32:50.900Z,93.33
2023-01-27T20:35:37.544Z,93.35
2023-01-27T20:38:22.866Z,93.45
2023-01-27T20:41:09.584Z,93.45
2023-01-27T20:43:59.107Z,93.38
2023-01-27T20:46:44.335Z,93.52
2023-01-27T20:49:29.362Z,93.37
2023-01-27T20:52:14.861Z,93.42
2023-01-27T20:54:59.775Z,93.34
2023-01-27T20:57:45.834Z,93.38
2023-01-27T21:00:31.147Z,93.27
2023-01-27T21:03:16.053Z,93.22
2023-01-27T21:06:00.928Z,93.46
2023-01-27T21:08:46.351Z,93.40
2023-01-27T21:11:31.707Z,93.42
2023-01-27T21:14:16.975Z,93.69
2023-01-27T21:17:02.244Z,93.24
2023-01-27T21:19:48.044Z,93.60
2023-01-27T21:22:32.911Z,93.62
2023-01-27T21:25:18.367Z,93.79
2023-01-27T21:28:03.687Z,94.19
2023-01-27T21:30:49.069Z,94.38
2023-01-27T21:33:36.079Z,94.38
2023-01-27T21:36:21.162Z,94.39
2023-01-27T21:39:06.680Z,94.68
2023-01-27T21:41:51.998Z,94.88
2023-01-27T21:44:37.221Z,95.04
2023-01-27T21:47:22.064Z,95.15
2023-01-27T21:50:07.897Z,95.11
2023-01-27T21:52:53.139Z,95.06
2023-01-27T21:55:38.197Z,95.17
2023-01-27T21:58:23.245Z,94.85
2023-01-27T22:01:10.487Z,95.05
2023-01-27T22:03:55.778Z,94.47
2023-01-27T22:06:40.694Z,94.74
2023-01-27T22:09:25.506Z,94.58
2023-01-27T22:12:13.759Z,94.43
2023-01-27T22:14:58.977Z,94.50
2023-01-27T22:17:43.727Z,94.15
2023-01-27T22:20:28.811Z,94.24
2023-01-27T22:23:13.734Z,94.57
2023-01-27T22:25:58.734Z,95.21
2023-01-27T22:28:44.200Z,95.13
2023-01-27T22:31:29.409Z,95.38
2023-01-27T22:34:14.746Z,94.89
2023-01-27T22:37:00.751Z,94.25
2023-01-27T22:39:45.935Z,94.23
2023-01-27T22:42:30.751Z,93.54
2023-01-27T22:45:16.093Z,93.51
2023-01-27T22:48:01.584Z,92.89
2023-01-27T22:50:46.993Z,92.53
2023-01-27T22:53:32.665Z,91.90
2023-01-27T22:56:17.679Z,91.69
2023-01-27T22:59:03.591Z,91.64
2023-01-27T23:01:48.478Z,90.84
2023-01-27T23:04:33.609Z,90.46
2023-01-27T23:07:18.970Z,90.50
2023-01-27T23:10:04.361Z,90.42
2023-01-27T23:12:49.222Z,90.18
2023-01-27T23:15:34.644Z,89.81
2023-01-27T23:18:21.940Z,89.48
2023-01-27T23:21:08.101Z,89.39
2023-01-27T23:23:53.784Z,89.77
2023-01-27T23:26:39.112Z,89.46
2023-01-27T23:29:26.132Z,89.38
2023-01-27T23:32:12.448Z,89.42
2023-01-27T23:34:57.762Z,89.47
2023-01-27T23:37:42.613Z,89.31
2023-01-27T23:40:27.447Z,88.85
2023-01-27T23:43:12.878Z,88.51
2023-01-27T23:45:58.666Z,88.77
2023-01-27T23:48:43.908Z,88.51
2023-01-27T23:51:29.323Z,88.61
2023-01-27T23:54:15.068Z,88.43
2023-01-27T23:57:00.785Z,88.37
2023-01-27T23:59:46.008Z,88.34
